createdAt,value
2022-09-06T00:09:52.087Z,1.50
2022-09-06T00:12:23.711Z,1.20
2022-09-06T00:28:26.648Z,1.50
2022-09-06T00:30:53.859Z,1.70
2022-09-06T00:33:21.226Z,1.80
2022-09-06T00:38:31.208Z,1.70
2022-09-06T00:40:59.472Z,1.52
2022-09-06T00:43:26.648Z,1.75
2022-09-06T00:45:55.353Z,1.42
2022-09-06T00:48:24.025Z,1.80
2022-09-06T00:50:55.407Z,1.52
2022-09-06T00:53:24.781Z,1.48
2022-09-06T00:58:35.382Z,1.42
2022-09-06T01:01:04.897Z,1.17
2022-09-06T01:06:24.704Z,1.70
2022-09-06T01:09:07.064Z,1.73
2022-09-06T01:11:40.390Z,1.20
2022-09-06T01:14:42.498Z,1.75
2022-09-06T01:17:18.494Z,1.67
2022-09-06T01:19:52.897Z,1.35
2022-09-06T01:22:41.812Z,1.77
2022-09-06T01:25:33.585Z,1.33
2022-09-06T01:28:12.782Z,1.30
2022-09-06T01:30:48.741Z,1.23
2022-09-06T01:33:46.702Z,1.75
2022-09-06T01:36:19.635Z,1.70
2022-09-06T01:44:09.995Z,1.58
2022-09-06T01:46:47.578Z,1.67
2022-09-06T01:52:14.565Z,1.60
2022-09-06T01:58:04.630Z,1.75
2022-09-06T02:00:40.148Z,1.50
2022-09-06T02:03:21.232Z,1.63
2022-09-06T02:06:06.316Z,1.60
2022-09-06T02:08:51.336Z,1.63
2022-09-06T02:11:19.027Z,1.60
2022-09-06T02:14:07.165Z,1.25
2022-09-06T02:16:39.806Z,1.50
2022-09-06T02:19:13.168Z,1.45
2022-09-06T02:21:45.642Z,1.90
2022-09-06T02:24:21.116Z,1.85
2022-09-06T02:29:31.665Z,1.52
2022-09-06T02:32:08.514Z,1.60
2022-09-06T02:34:40.439Z,1.75
2022-09-06T02:37:08.511Z,1.58
2022-09-06T02:39:39.861Z,1.90
2022-09-06T02:42:10.815Z,2.10
2022-09-06T02:44:38.109Z,2.13
2022-09-06T02:49:46.822Z,2.47
2022-09-06T02:52:16.633Z,2.60
2022-09-06T02:54:43.927Z,2.50
2022-09-06T02:59:52.779Z,2.90
2022-09-06T03:02:20.283Z,2.13
2022-09-06T03:04:48.418Z,2.72
2022-09-06T03:09:57.299Z,2.70
2022-09-06T03:12:26.422Z,2.53
2022-09-06T03:14:55.142Z,2.78
2022-09-06T03:17:23.593Z,2.95
2022-09-06T03:25:12.540Z,2.15
2022-09-06T03:27:40.016Z,2.40
2022-09-06T03:32:48.984Z,2.65
2022-09-06T03:38:00.054Z,3.00
2022-09-06T03:40:27.337Z,3.03
2022-09-06T03:42:54.766Z,2.55
2022-09-06T03:45:22.016Z,2.50
2022-09-06T03:47:49.576Z,2.05
2022-09-06T03:50:21.271Z,1.88
2022-09-06T03:52:48.569Z,2.25
2022-09-06T03:55:15.787Z,2.25
2022-09-06T04:00:25.233Z,2.28
2022-09-06T04:02:52.458Z,2.85
2022-09-06T04:10:44.572Z,2.45
2022-09-06T04:13:13.766Z,2.22
2022-09-06T04:18:31.743Z,1.92
2022-09-06T04:21:03.976Z,1.70
2022-09-06T04:26:13.797Z,2.45
2022-09-06T04:28:42.802Z,2.42
2022-09-06T04:31:15.651Z,2.45
2022-09-06T04:39:07.950Z,1.73
2022-09-06T04:41:53.610Z,2.15
2022-09-06T04:44:30.178Z,1.63
2022-09-06T04:47:15.241Z,2.17
2022-09-06T04:55:28.256Z,1.30
2022-09-06T05:06:40.432Z,1.70
2022-09-06T05:09:09.200Z,1.70
2022-09-06T05:11:45.718Z,1.77
2022-09-06T05:14:13.643Z,2.75
2022-09-06T06:16:42.353Z,2.08
2022-09-06T06:19:10.530Z,1.60
2022-09-06T06:27:11.289Z,1.85
2022-09-06T06:32:32.613Z,2.08
2022-09-06T06:37:48.749Z,2.70
2022-09-06T06:48:22.910Z,3.05
2022-09-06T06:53:33.457Z,3.40
2022-09-06T06:56:09.052Z,3.38
2022-09-06T06:58:37.985Z,2.92
2022-09-06T07:11:50.015Z,3.65
2022-09-06T07:14:20.022Z,3.30
2022-09-06T07:16:47.514Z,3.92
2022-09-06T07:22:10.543Z,4.73
2022-09-06T07:24:40.064Z,5.05
2022-09-06T07:29:55.155Z,5.10
2022-09-06T07:32:23.728Z,4.55
2022-09-06T07:34:52.253Z,4.05
2022-09-06T07:37:19.983Z,3.50
2022-09-06T07:39:47.431Z,3.55
2022-09-06T07:42:18.420Z,4.18
2022-09-06T07:44:46.629Z,3.17
2022-09-06T07:53:15.141Z,3.00
2022-09-06T07:55:46.287Z,3.22
2022-09-06T07:58:14.416Z,2.97
2022-09-06T08:00:45.117Z,3.17
2022-09-06T08:03:12.516Z,3.47
2022-09-06T08:11:20.074Z,3.55
2022-09-06T08:13:55.966Z,3.83
2022-09-06T08:16:26.252Z,3.17
2022-09-06T08:18:58.637Z,3.35
2022-09-06T08:21:28.780Z,2.75
2022-09-06T08:26:54.015Z,2.88
2022-09-06T08:42:50.696Z,1.95
2022-09-06T08:45:19.860Z,1.83
2022-09-06T08:47:49.130Z,2.03
2022-09-06T08:56:18.597Z,2.22
2022-09-06T08:59:04.117Z,1.85
2022-09-06T09:02:02.015Z,1.90
2022-09-06T09:04:32.797Z,2.38
2022-09-06T09:10:17.207Z,2.13
2022-09-06T09:12:49.854Z,2.33
2022-09-06T09:40:38.125Z,1.83
2022-09-06T09:43:15.948Z,2.50
2022-09-06T09:45:49.959Z,2.17
2022-09-06T09:51:39.425Z,2.03
2022-09-06T09:54:13.386Z,2.00
2022-09-06T09:59:41.528Z,2.53
2022-09-06T10:02:32.494Z,1.88
2022-09-06T10:05:15.330Z,2.08
2022-09-06T10:10:43.644Z,3.38
2022-09-06T10:30:29.063Z,2.47
2022-09-06T10:33:16.586Z,2.65
2022-09-06T10:44:39.228Z,1.70
2022-09-06T10:52:52.177Z,1.48
2022-09-06T10:55:23.435Z,1.67
2022-09-06T11:04:00.102Z,3.35
2022-09-06T11:06:56.604Z,1.52
2022-09-06T11:44:51.561Z,2.00
2022-09-06T11:59:00.848Z,2.75
2022-09-06T12:01:28.892Z,2.22
2022-09-06T12:04:30.057Z,2.35
2022-09-06T12:26:03.032Z,2.38
2022-09-06T12:31:54.994Z,2.40
2022-09-06T12:43:42.388Z,1.88
2022-09-06T12:49:18.095Z,2.50
2022-09-06T12:51:46.532Z,2.45
2022-09-06T12:54:27.066Z,2.15
2022-09-06T12:57:13.030Z,2.80
2022-09-06T13:02:53.081Z,3.03
2022-09-06T13:05:31.215Z,2.60
2022-09-06T13:08:13.520Z,2.60
2022-09-06T13:10:49.040Z,2.63
2022-09-06T13:16:07.300Z,3.38
2022-09-06T13:18:46.827Z,3.10
2022-09-06T13:24:34.432Z,3.00
2022-09-06T13:33:27.497Z,3.63
2022-09-06T13:36:26.914Z,4.90
2022-09-06T14:13:27.705Z,3.85
2022-09-06T14:41:34.683Z,2.70
2022-09-06T14:44:17.288Z,3.28
2022-09-06T15:01:10.000Z,1.90
2022-09-06T15:06:39.373Z,1.95
2022-09-06T15:22:42.114Z,2.67
2022-09-06T15:33:30.589Z,2.78
2022-09-06T15:38:44.475Z,2.42
2022-09-06T15:41:20.332Z,2.55
2022-09-06T15:46:41.751Z,2.47
2022-09-06T15:57:42.360Z,1.83
2022-09-06T16:00:13.452Z,1.90
2022-09-06T16:08:18.881Z,2.70
2022-09-06T16:10:56.053Z,2.88
2022-09-06T16:13:26.257Z,2.28
2022-09-06T16:26:53.722Z,2.10
2022-09-06T16:34:52.867Z,1.90
2022-09-06T16:37:47.629Z,2.05
2022-09-06T16:40:17.421Z,1.50
2022-09-06T16:42:44.759Z,1.40
2022-09-06T16:47:56.136Z,1.88
2022-09-06T16:50:24.618Z,2.47
2022-09-06T16:52:54.888Z,2.03
2022-09-06T17:03:38.473Z,1.80
2022-09-06T17:11:36.962Z,2.30
2022-09-06T17:17:05.295Z,2.30
2022-09-06T17:19:42.070Z,2.10
2022-09-06T17:22:20.213Z,1.50
2022-09-06T17:24:47.663Z,2.20
2022-09-06T17:27:14.920Z,2.20
2022-09-06T17:43:21.803Z,2.33
2022-09-06T17:45:49.674Z,2.85
2022-09-06T17:48:25.335Z,2.65
2022-09-06T17:53:49.826Z,2.83
2022-09-06T18:01:51.294Z,1.60
2022-09-06T18:12:35.457Z,2.60
2022-09-06T18:15:08.843Z,2.50
2022-09-06T18:17:36.474Z,2.50
2022-09-06T18:20:05.119Z,3.67
2022-09-06T18:25:15.207Z,2.35
2022-09-06T18:27:43.591Z,2.50
2022-09-06T18:30:14.750Z,2.60
2022-09-06T18:32:44.348Z,1.73
2022-09-06T18:38:02.575Z,2.22
2022-09-06T18:43:21.733Z,1.92
2022-09-06T18:45:50.991Z,2.40
2022-09-06T18:48:23.960Z,3.05
2022-09-06T18:53:33.685Z,2.72
2022-09-06T18:56:02.344Z,2.05
2022-09-06T19:01:18.529Z,2.45
2022-09-06T19:06:41.094Z,2.42
2022-09-06T19:09:12.584Z,2.38
2022-09-06T19:17:12.130Z,3.03
2022-09-06T19:19:39.465Z,2.42
2022-09-06T19:22:06.874Z,2.60
2022-09-06T19:24:34.713Z,2.65
2022-09-06T19:27:02.693Z,1.85
2022-09-06T19:29:30.214Z,2.70
2022-09-06T19:31:59.069Z,2.60
2022-09-06T19:34:27.009Z,2.50
2022-09-06T19:37:13.058Z,3.00
2022-09-06T19:39:50.325Z,2.45
2022-09-06T19:42:17.872Z,2.88
2022-09-06T19:44:45.312Z,2.95
2022-09-06T19:47:15.504Z,2.85
2022-09-06T19:49:43.368Z,3.05
2022-09-06T19:52:16.308Z,2.40
2022-09-06T19:54:43.688Z,3.33
2022-09-06T19:57:11.659Z,2.75
2022-09-06T19:59:44.429Z,3.03
2022-09-06T20:02:11.776Z,3.13
2022-09-06T20:04:40.287Z,2.72
2022-09-06T20:09:53.310Z,2.90
2022-09-06T20:12:21.499Z,3.33
2022-09-06T20:14:48.764Z,2.72
2022-09-06T20:17:33.258Z,2.83
2022-09-06T20:20:02.053Z,3.00
2022-09-06T20:22:31.137Z,2.90
2022-09-06T20:25:03.229Z,2.50
2022-09-06T20:27:31.329Z,2.92
2022-09-06T20:29:59.598Z,2.70
2022-09-06T20:32:26.847Z,3.10
2022-09-06T20:34:54.661Z,2.72
2022-09-06T20:37:22.687Z,3.20
2022-09-06T20:39:50.064Z,2.50
2022-09-06T20:42:17.513Z,2.80
2022-09-06T20:47:28.079Z,2.63
2022-09-06T20:49:58.565Z,2.78
2022-09-06T20:52:29.053Z,2.53
2022-09-06T21:00:19.066Z,2.65
2022-09-06T21:02:47.545Z,3.10
2022-09-06T21:05:15.213Z,3.00
2022-09-06T21:07:51.731Z,3.05
2022-09-06T21:10:23.561Z,3.42
2022-09-06T21:12:51.132Z,2.92
2022-09-06T21:15:19.400Z,2.90
2022-09-06T21:17:47.315Z,3.00
2022-09-06T21:20:15.596Z,2.75
2022-09-06T21:25:26.220Z,2.13
2022-09-06T21:27:55.853Z,3.33
2022-09-06T21:30:23.434Z,2.72
2022-09-06T21:32:54.793Z,2.33
2022-09-06T21:43:26.517Z,3.03
2022-09-06T21:51:31.811Z,2.70
2022-09-06T21:59:23.255Z,3.10
2022-09-06T22:02:01.824Z,2.50
2022-09-06T22:04:29.170Z,2.90
2022-09-06T22:06:58.431Z,2.75
2022-09-06T22:20:12.374Z,2.95
2022-09-06T22:22:39.528Z,2.92
2022-09-06T22:25:07.386Z,2.92
2022-09-06T22:27:35.089Z,2.80
2022-09-06T22:30:02.263Z,2.35
2022-09-06T22:32:30.884Z,2.50
2022-09-06T22:34:58.654Z,2.55
2022-09-06T22:37:25.848Z,4.03
2022-09-06T22:39:53.075Z,3.67
2022-09-06T22:42:20.704Z,2.65
2022-09-06T22:44:48.941Z,2.92
2022-09-06T22:47:16.631Z,3.17
2022-09-06T22:52:25.802Z,2.38
2022-09-06T22:54:54.047Z,3.58
2022-09-06T22:57:27.535Z,2.92
2022-09-06T22:59:54.799Z,2.95
2022-09-06T23:02:21.930Z,3.05
2022-09-06T23:04:52.180Z,3.47
2022-09-06T23:07:19.539Z,2.95
2022-09-06T23:15:10.281Z,3.05
2022-09-06T23:17:38.229Z,3.20
2022-09-06T23:25:29.226Z,3.20
2022-09-06T23:28:00.213Z,2.88
2022-09-06T23:30:29.952Z,3.47
2022-09-06T23:32:57.406Z,3.60
2022-09-06T23:35:24.643Z,3.15
2022-09-06T23:37:51.914Z,4.13
2022-09-06T23:40:19.772Z,3.50
2022-09-06T23:42:47.197Z,3.47
2022-09-06T23:45:14.893Z,3.88
2022-09-06T23:47:42.336Z,3.80
2022-09-06T23:50:19.091Z,3.40
2022-09-06T23:52:46.689Z,4.13
2022-09-06T23:55:15.017Z,3.65
2022-09-06T23:57:43.600Z,3.70
